Terminal Aerodrome Forecast
Issued by NWS

Home | Current Version | Previous Version | Text Only | Print | Product List | Glossary On
Versions: 1 2 3 4 5 6 7 8 9 10 11 12 13 14 15 16 17 18 19 20 21 22 23 24 25 26 27 28 29 30 31
801
FTUS41 KBTV 180804 AAA
TAFPBG
TAF AMD
KPBG 180804Z 1808/1906 VRB03KT P6SM BKN140
     FM181200 16005KT 6SM -SN OVC028
      TEMPO 1813/1817 1 1/2SM -SN BR OVC020
     FM181700 16005KT P6SM OVC020
     FM181900 16004KT P6SM OVC015
     FM182300 VRB03KT P6SM VCSH OVC010=

USA.gov is the U.S. government's official web portal to all federal, state and local government web resources and services.